createdAt,value
2022-11-07T00:02:10.962Z,12.20
2022-11-07T00:04:39.142Z,10.00
2022-11-07T00:07:08.643Z,8.60
2022-11-07T00:09:36.711Z,12.00
2022-11-07T00:12:05.127Z,13.80
2022-11-07T00:14:33.163Z,13.80
2022-11-07T00:17:01.157Z,12.50
2022-11-07T00:19:29.994Z,14.60
2022-11-07T00:21:58.104Z,14.60
2022-11-07T00:24:27.770Z,12.50
2022-11-07T00:26:57.163Z,16.00
2022-11-07T00:29:25.236Z,10.00
2022-11-07T00:31:53.360Z,13.00
2022-11-07T00:34:21.376Z,12.00
2022-11-07T00:36:49.454Z,11.20
2022-11-07T00:39:17.890Z,13.80
2022-11-07T00:41:49.686Z,15.00
2022-11-07T00:44:17.816Z,15.00
2022-11-07T00:46:46.103Z,15.00
2022-11-07T00:49:14.072Z,14.20
2022-11-07T00:51:42.171Z,13.20
2022-11-07T00:54:10.185Z,13.00
2022-11-07T00:56:38.229Z,13.80
2022-11-07T00:59:07.806Z,11.60
2022-11-07T01:01:36.538Z,17.60
2022-11-07T01:04:22.167Z,14.60
2022-11-07T01:06:50.393Z,7.80
2022-11-07T01:09:20.929Z,16.40
2022-11-07T01:11:49.571Z,13.00
2022-11-07T01:14:20.078Z,12.00
2022-11-07T01:16:48.195Z,15.75
2022-11-07T01:19:16.305Z,14.00
2022-11-07T01:21:44.844Z,16.00
2022-11-07T01:24:13.697Z,15.25
2022-11-07T01:26:42.184Z,15.20
2022-11-07T01:29:10.444Z,5.50
2022-11-07T01:31:39.906Z,13.50
2022-11-07T01:34:07.956Z,10.50
2022-11-07T01:36:35.981Z,14.50
2022-11-07T01:39:04.133Z,14.50
2022-11-07T01:41:33.418Z,13.60
2022-11-07T01:44:02.353Z,14.80
2022-11-07T01:46:32.220Z,12.40
2022-11-07T01:49:05.296Z,15.60
2022-11-07T01:51:34.799Z,13.80
2022-11-07T01:54:03.779Z,14.20
2022-11-07T01:56:33.998Z,7.50
2022-11-07T01:59:02.873Z,13.20
2022-11-07T02:01:31.057Z,14.20
2022-11-07T02:03:59.994Z,14.25
2022-11-07T02:06:33.180Z,13.00
2022-11-07T02:09:01.269Z,12.25
2022-11-07T02:11:29.696Z,12.00
2022-11-07T02:13:57.865Z,12.50
2022-11-07T02:16:25.920Z,12.75
2022-11-07T02:18:54.254Z,15.00
2022-11-07T02:21:27.384Z,15.25
2022-11-07T02:23:59.917Z,15.00
2022-11-07T02:26:30.352Z,15.00
2022-11-07T02:28:58.909Z,17.75
2022-11-07T02:31:27.301Z,15.00
2022-11-07T02:33:55.403Z,9.25
2022-11-07T02:36:24.400Z,14.50
2022-11-07T02:38:57.571Z,14.75
2022-11-07T02:41:26.663Z,14.50
2022-11-07T02:43:58.882Z,8.00
2022-11-07T02:46:27.403Z,17.00
2022-11-07T02:48:56.608Z,16.00
2022-11-07T02:51:24.948Z,14.50
2022-11-07T02:53:53.573Z,14.75
2022-11-07T02:56:22.390Z,18.50
2022-11-07T02:58:50.441Z,16.00
2022-11-07T03:01:20.271Z,9.50
2022-11-07T03:03:49.453Z,16.00
2022-11-07T03:06:18.771Z,17.50
2022-11-07T03:08:47.031Z,20.50
2022-11-07T03:11:19.920Z,13.00
2022-11-07T03:13:48.671Z,18.00
2022-11-07T03:16:17.671Z,18.50
2022-11-07T03:18:47.097Z,19.00
2022-11-07T03:21:15.172Z,17.00
2022-11-07T03:23:43.253Z,16.25
2022-11-07T03:26:11.488Z,15.00
2022-11-07T03:28:39.502Z,18.50
2022-11-07T03:31:07.548Z,17.50
2022-11-07T03:33:35.594Z,15.75
2022-11-07T03:36:05.252Z,19.00
2022-11-07T03:38:33.360Z,18.00
2022-11-07T03:41:01.402Z,19.50
2022-11-07T03:43:29.420Z,12.25
2022-11-07T03:45:57.417Z,19.25
2022-11-07T03:48:25.420Z,15.25
2022-11-07T03:50:54.146Z,14.25
2022-11-07T03:53:25.673Z,13.75
2022-11-07T03:55:55.625Z,15.00
2022-11-07T03:58:24.207Z,13.40
2022-11-07T04:00:52.438Z,19.00
2022-11-07T04:03:20.520Z,17.20
2022-11-07T04:05:48.583Z,18.20
2022-11-07T04:08:16.628Z,16.00
2022-11-07T04:10:46.043Z,16.50
2022-11-07T04:13:31.556Z,15.00
2022-11-07T04:16:17.848Z,14.00
2022-11-07T04:18:46.036Z,18.00
2022-11-07T04:21:14.078Z,17.00
2022-11-07T04:23:42.095Z,13.50
2022-11-07T04:26:28.949Z,18.50
2022-11-07T04:28:56.972Z,21.80
2022-11-07T04:31:25.004Z,18.60
2022-11-07T04:33:53.101Z,16.00
2022-11-07T04:36:21.144Z,18.20
2022-11-07T04:38:49.209Z,23.60
2022-11-07T04:41:22.405Z,21.60
2022-11-07T04:43:50.862Z,18.40
2022-11-07T04:46:18.907Z,20.00
2022-11-07T04:48:46.941Z,23.20
2022-11-07T04:51:16.277Z,25.00
2022-11-07T04:53:44.263Z,23.40
2022-11-07T04:56:12.381Z,25.00
2022-11-07T04:58:41.838Z,21.60
2022-11-07T05:01:10.181Z,12.80
2022-11-07T05:03:41.743Z,21.40
2022-11-07T05:06:11.678Z,21.00
2022-11-07T05:08:39.711Z,16.40
2022-11-07T05:11:07.844Z,21.00
2022-11-07T05:13:36.207Z,18.25
2022-11-07T05:16:06.273Z,12.50
2022-11-07T05:18:34.803Z,19.00
2022-11-07T05:21:03.278Z,18.50
2022-11-07T05:23:31.320Z,17.50
2022-11-07T05:25:59.449Z,14.25
2022-11-07T05:28:36.973Z,17.75
2022-11-07T05:31:09.058Z,15.75
2022-11-07T05:33:37.144Z,15.25
2022-11-07T05:36:12.295Z,16.00
2022-11-07T05:38:41.429Z,10.00
2022-11-07T05:41:09.491Z,8.75
2022-11-07T05:43:38.307Z,13.00
2022-11-07T05:46:06.899Z,12.50
2022-11-07T05:48:36.809Z,14.00
2022-11-07T05:51:05.233Z,12.00
2022-11-07T05:53:33.613Z,16.50
2022-11-07T05:56:02.116Z,14.00
2022-11-07T05:58:30.202Z,13.00
2022-11-07T06:01:02.031Z,14.50
2022-11-07T06:03:30.421Z,2.60
2022-11-07T06:06:03.583Z,11.50
2022-11-07T06:08:32.015Z,13.00
2022-11-07T06:11:00.102Z,11.50
2022-11-07T06:13:28.362Z,13.50
2022-11-07T06:15:58.733Z,12.50
2022-11-07T06:18:26.843Z,14.00
2022-11-07T06:20:54.934Z,11.75
2022-11-07T06:23:24.413Z,12.25
2022-11-07T06:25:52.580Z,13.25
2022-11-07T06:28:20.933Z,10.25
2022-11-07T06:30:49.040Z,8.00
2022-11-07T06:33:18.903Z,10.25
2022-11-07T06:35:47.605Z,12.50
2022-11-07T06:38:17.598Z,13.00
2022-11-07T06:40:47.131Z,18.00
2022-11-07T06:43:16.447Z,17.00
2022-11-07T06:45:45.592Z,16.75
2022-11-07T06:48:14.103Z,17.50
2022-11-07T06:50:42.440Z,16.25
2022-11-07T06:53:11.865Z,14.50
2022-11-07T06:55:40.441Z,13.50
2022-11-07T06:58:09.933Z,16.00
2022-11-07T07:00:38.421Z,14.00
2022-11-07T07:03:06.869Z,13.00
2022-11-07T07:05:35.111Z,10.75
2022-11-07T07:08:04.945Z,12.25
2022-11-07T07:10:35.481Z,12.00
2022-11-07T07:13:03.503Z,11.25
2022-11-07T07:15:47.851Z,16.00
2022-11-07T07:18:18.915Z,10.25
2022-11-07T07:20:47.408Z,12.50
2022-11-07T07:23:15.551Z,14.25
2022-11-07T07:25:43.809Z,12.25
2022-11-07T07:28:11.853Z,16.00
2022-11-07T07:30:41.322Z,17.25
2022-11-07T07:33:09.364Z,17.75
2022-11-07T07:35:37.917Z,11.00
2022-11-07T07:38:06.240Z,14.25
2022-11-07T07:40:34.289Z,14.50
2022-11-07T07:43:02.359Z,16.75
2022-11-07T07:45:30.508Z,16.25
2022-11-07T07:48:03.266Z,11.75
2022-11-07T07:50:31.302Z,17.75
2022-11-07T07:53:00.708Z,13.75
2022-11-07T07:55:30.611Z,12.00
2022-11-07T07:57:58.644Z,13.00
2022-11-07T08:00:26.699Z,14.00
2022-11-07T08:03:02.518Z,7.75
2022-11-07T08:05:30.790Z,11.00
2022-11-07T08:07:58.898Z,13.50
2022-11-07T08:10:41.601Z,11.00
2022-11-07T08:13:10.523Z,11.50
2022-11-07T08:15:38.653Z,10.00
2022-11-07T08:18:08.470Z,11.00
2022-11-07T08:20:36.786Z,11.00
2022-11-07T08:23:07.626Z,13.00
2022-11-07T08:25:52.864Z,12.50
2022-11-07T08:28:21.725Z,12.00
2022-11-07T08:30:57.901Z,11.75
2022-11-07T08:33:41.137Z,13.00
2022-11-07T08:36:09.564Z,12.50
2022-11-07T08:38:38.098Z,9.50
2022-11-07T08:41:06.279Z,14.75
2022-11-07T08:43:34.490Z,15.25
2022-11-07T08:46:02.684Z,14.50
2022-11-07T08:48:30.833Z,13.00
2022-11-07T08:51:03.027Z,14.00
2022-11-07T08:53:31.505Z,14.25
2022-11-07T08:56:03.174Z,11.75
2022-11-07T08:58:31.357Z,11.00
2022-11-07T09:00:59.688Z,12.75
2022-11-07T09:03:45.217Z,12.75
2022-11-07T09:06:17.678Z,12.50
2022-11-07T09:08:45.750Z,14.75
2022-11-07T09:11:15.928Z,13.00
2022-11-07T09:13:44.215Z,14.00
2022-11-07T09:16:12.453Z,13.50
2022-11-07T09:18:40.724Z,14.00
2022-11-07T09:21:09.108Z,11.00
2022-11-07T09:23:39.984Z,13.00
2022-11-07T09:26:08.779Z,11.75
2022-11-07T09:28:37.167Z,9.50
2022-11-07T09:31:05.772Z,11.00
2022-11-07T09:33:33.988Z,9.25
2022-11-07T09:36:02.622Z,11.00
2022-11-07T09:38:31.908Z,8.75
2022-11-07T09:41:07.179Z,10.50
2022-11-07T09:43:50.922Z,12.50
2022-11-07T09:46:26.000Z,11.25
2022-11-07T09:48:57.028Z,15.00
2022-11-07T09:51:28.014Z,14.00
2022-11-07T09:53:58.694Z,15.00
2022-11-07T09:56:29.327Z,6.75
2022-11-07T09:58:58.681Z,13.25
2022-11-07T10:01:28.839Z,9.00
2022-11-07T10:04:24.212Z,12.00
2022-11-07T10:06:47.495Z,5.75
2022-11-07T10:09:18.091Z,15.50
2022-11-07T10:11:51.774Z,13.75
2022-11-07T10:14:23.539Z,16.00
2022-11-07T10:17:06.247Z,11.00
2022-11-07T10:19:42.516Z,11.00
2022-11-07T10:22:17.948Z,15.50
2022-11-07T10:24:55.701Z,16.25
2022-11-07T10:27:25.364Z,22.00
2022-11-07T10:29:55.130Z,15.75
2022-11-07T10:32:25.460Z,13.25
2022-11-07T10:34:56.541Z,14.25
2022-11-07T10:37:25.018Z,15.00
2022-11-07T10:39:53.038Z,14.50
2022-11-07T10:42:21.930Z,16.00
2022-11-07T10:44:54.063Z,17.75
2022-11-07T10:47:23.019Z,13.25
2022-11-07T10:49:55.354Z,17.75
2022-11-07T10:52:25.827Z,17.00
2022-11-07T10:55:05.677Z,10.00
2022-11-07T10:57:35.686Z,10.75
2022-11-07T11:00:08.263Z,18.75
2022-11-07T11:02:43.387Z,16.50
2022-11-07T11:05:21.230Z,14.00
2022-11-07T11:07:49.665Z,16.50
2022-11-07T11:10:19.641Z,19.00
2022-11-07T11:12:48.861Z,20.25
2022-11-07T11:15:19.616Z,19.00
2022-11-07T11:17:48.298Z,18.25
2022-11-07T11:20:29.802Z,20.50
2022-11-07T11:22:58.155Z,17.00
2022-11-07T11:25:26.328Z,22.00
2022-11-07T11:27:56.736Z,22.25
2022-11-07T11:30:26.477Z,25.00
2022-11-07T11:32:58.802Z,16.75
2022-11-07T11:35:36.379Z,15.00
2022-11-07T11:38:12.867Z,24.00
2022-11-07T11:40:43.095Z,18.80
2022-11-07T11:43:18.818Z,22.60
2022-11-07T11:45:55.325Z,15.50
2022-11-07T11:48:25.017Z,21.60
2022-11-07T11:50:57.713Z,20.60
2022-11-07T11:53:25.742Z,22.00
2022-11-07T11:55:59.202Z,22.00
2022-11-07T11:58:35.223Z,12.00
2022-11-07T12:01:09.277Z,20.50
2022-11-07T12:03:46.437Z,16.25
2022-11-07T12:06:18.335Z,18.00
2022-11-07T12:08:56.733Z,18.00
2022-11-07T12:11:28.987Z,13.25
2022-11-07T12:14:02.336Z,25.60
2022-11-07T12:16:36.928Z,21.00
2022-11-07T12:19:09.283Z,23.75
2022-11-07T12:21:45.901Z,24.40
2022-11-07T12:24:23.113Z,25.20
2022-11-07T12:26:57.592Z,25.00
2022-11-07T12:29:29.906Z,25.00
2022-11-07T12:32:06.298Z,24.40
2022-11-07T12:34:44.861Z,22.20
2022-11-07T12:37:21.964Z,22.00
2022-11-07T12:40:02.674Z,20.40
2022-11-07T12:42:35.841Z,24.25
2022-11-07T12:45:09.851Z,20.60
2022-11-07T12:47:45.261Z,17.20
2022-11-07T12:50:21.018Z,23.60
2022-11-07T12:52:56.075Z,19.40
2022-11-07T12:55:25.981Z,25.20
2022-11-07T12:57:56.235Z,21.60
2022-11-07T13:00:29.654Z,21.00
2022-11-07T13:03:16.600Z,18.40
2022-11-07T13:05:55.253Z,26.20
2022-11-07T13:08:30.994Z,22.80
2022-11-07T13:11:05.448Z,21.40
2022-11-07T13:13:37.943Z,16.20
2022-11-07T13:16:15.506Z,25.20
2022-11-07T13:18:44.273Z,27.20
2022-11-07T13:21:13.954Z,28.20
2022-11-07T13:23:42.197Z,22.00
2022-11-07T13:26:32.898Z,23.60
2022-11-07T13:28:59.625Z,21.00
2022-11-07T13:31:37.715Z,26.20
2022-11-07T13:34:12.539Z,23.80
2022-11-07T13:36:42.218Z,23.80
2022-11-07T13:39:13.250Z,32.40
2022-11-07T13:41:41.712Z,26.80
2022-11-07T13:44:18.133Z,28.20
2022-11-07T13:46:48.919Z,31.80
2022-11-07T13:49:18.727Z,31.20
2022-11-07T13:51:49.976Z,20.40
2022-11-07T13:54:20.903Z,31.20
2022-11-07T13:56:53.262Z,29.80
2022-11-07T13:59:33.836Z,28.40
2022-11-07T14:02:07.639Z,26.00
2022-11-07T14:04:44.564Z,26.40
2022-11-07T14:07:24.867Z,26.20
2022-11-07T14:09:55.526Z,20.60
2022-11-07T14:12:23.950Z,27.00
2022-11-07T14:14:59.361Z,27.00
2022-11-07T14:17:32.370Z,24.80
2022-11-07T14:20:07.388Z,25.00
2022-11-07T14:22:37.861Z,27.00
2022-11-07T14:25:20.017Z,25.40
2022-11-07T14:27:48.265Z,26.00
2022-11-07T14:30:17.467Z,27.00
2022-11-07T14:32:49.354Z,26.00
2022-11-07T14:35:19.967Z,25.60
2022-11-07T14:37:49.668Z,31.00
2022-11-07T14:40:17.903Z,31.60
2022-11-07T14:42:46.708Z,30.00
2022-11-07T14:45:16.272Z,28.20
2022-11-07T14:47:46.373Z,27.20
2022-11-07T14:50:19.055Z,28.20
2022-11-07T14:52:54.921Z,22.20
2022-11-07T14:55:28.793Z,23.00
2022-11-07T14:57:56.937Z,27.40
2022-11-07T15:00:25.082Z,23.80
2022-11-07T15:02:55.075Z,25.00
2022-11-07T15:05:24.667Z,21.00
2022-11-07T15:07:54.686Z,24.40
2022-11-07T15:10:27.604Z,20.20
2022-11-07T15:12:57.064Z,21.80
2022-11-07T15:15:26.081Z,21.80
2022-11-07T15:17:56.162Z,21.60
2022-11-07T15:20:33.395Z,20.80
2022-11-07T15:23:03.907Z,25.00
2022-11-07T15:25:34.800Z,23.00
2022-11-07T15:28:13.327Z,26.00
2022-11-07T15:30:44.684Z,13.60
2022-11-07T15:33:14.001Z,24.80
2022-11-07T15:35:44.392Z,27.40
2022-11-07T15:38:20.978Z,2.00
2022-11-07T15:40:50.015Z,26.60
2022-11-07T15:43:21.328Z,24.80
2022-11-07T15:45:50.802Z,21.60
2022-11-07T15:48:20.312Z,29.40
2022-11-07T15:50:49.860Z,27.00
2022-11-07T15:53:23.093Z,19.40
2022-11-07T15:55:53.127Z,25.60
2022-11-07T15:58:23.069Z,26.40
2022-11-07T16:00:51.267Z,28.20
2022-11-07T16:03:20.541Z,23.40
2022-11-07T16:05:49.519Z,24.40
2022-11-07T16:08:19.309Z,24.00
2022-11-07T16:10:51.030Z,24.20
2022-11-07T16:13:19.324Z,25.20
2022-11-07T16:15:48.516Z,22.40
2022-11-07T16:18:17.905Z,22.00
2022-11-07T16:20:46.545Z,27.00
2022-11-07T16:23:15.066Z,24.20
2022-11-07T16:25:44.696Z,25.80
2022-11-07T16:28:22.375Z,23.25
2022-11-07T16:30:50.778Z,27.00
2022-11-07T16:33:19.051Z,23.25
2022-11-07T16:35:49.149Z,22.75
2022-11-07T16:38:18.456Z,21.40
2022-11-07T16:40:46.786Z,26.00
2022-11-07T16:43:16.385Z,20.20
2022-11-07T16:45:46.763Z,18.00
2022-11-07T16:48:30.456Z,24.20
2022-11-07T16:50:58.800Z,26.40
2022-11-07T16:53:27.026Z,20.00
2022-11-07T16:55:56.157Z,23.00
2022-11-07T16:58:27.165Z,22.60
2022-11-07T17:00:56.688Z,19.80
2022-11-07T17:03:25.795Z,17.20
2022-11-07T17:05:54.695Z,25.00
2022-11-07T17:08:24.687Z,20.60
2022-11-07T17:10:52.846Z,22.00
2022-11-07T17:13:23.171Z,23.40
2022-11-07T17:15:53.150Z,17.00
2022-11-07T17:18:21.712Z,14.25
2022-11-07T17:20:51.933Z,21.20
2022-11-07T17:23:23.949Z,20.40
2022-11-07T17:25:55.527Z,21.00
2022-11-07T17:28:24.062Z,12.60
2022-11-07T17:30:53.705Z,19.80
2022-11-07T17:33:21.806Z,18.80
2022-11-07T17:35:51.457Z,22.00
2022-11-07T17:38:20.288Z,18.40
2022-11-07T17:40:48.564Z,15.20
2022-11-07T17:43:16.790Z,21.80
2022-11-07T17:45:44.836Z,18.80
2022-11-07T17:48:14.657Z,22.20
2022-11-07T17:50:43.064Z,22.60
2022-11-07T17:53:11.122Z,19.60
2022-11-07T17:55:39.227Z,20.00
2022-11-07T17:58:07.314Z,17.20
2022-11-07T18:00:35.643Z,21.00
2022-11-07T18:03:03.917Z,16.00
2022-11-07T18:05:34.871Z,14.50
2022-11-07T18:08:03.677Z,25.00
2022-11-07T18:10:32.952Z,21.00
2022-11-07T18:13:01.560Z,19.75
2022-11-07T18:15:30.378Z,19.20
2022-11-07T18:17:58.452Z,18.80
2022-11-07T18:20:27.762Z,19.80
2022-11-07T18:22:57.408Z,20.20
2022-11-07T18:25:25.439Z,20.80
2022-11-07T18:27:53.557Z,18.80
2022-11-07T18:30:21.566Z,16.80
2022-11-07T18:32:49.622Z,20.20
2022-11-07T18:35:17.816Z,23.00
2022-11-07T18:37:46.009Z,11.80
2022-11-07T18:40:15.532Z,20.60
2022-11-07T18:42:44.166Z,23.00
2022-11-07T18:45:12.370Z,11.00
2022-11-07T18:47:40.496Z,18.00
2022-11-07T18:50:09.230Z,17.20
2022-11-07T18:52:37.310Z,16.60
2022-11-07T18:55:05.811Z,15.80
2022-11-07T18:57:36.827Z,16.25
2022-11-07T19:00:10.665Z,17.80
2022-11-07T19:02:41.370Z,14.40
2022-11-07T19:05:09.640Z,15.25
2022-11-07T19:07:39.983Z,20.00
2022-11-07T19:10:08.468Z,15.80
2022-11-07T19:12:39.261Z,18.00
2022-11-07T19:15:08.329Z,16.00
2022-11-07T19:17:37.408Z,19.60
2022-11-07T19:20:06.057Z,17.00
2022-11-07T19:22:34.046Z,20.40
2022-11-07T19:25:02.075Z,20.20
2022-11-07T19:27:33.070Z,18.40
2022-11-07T19:30:02.763Z,17.50
2022-11-07T19:32:31.383Z,14.00
2022-11-07T19:34:59.412Z,20.20
2022-11-07T19:37:27.513Z,13.25
2022-11-07T19:39:55.567Z,13.25
2022-11-07T19:42:28.130Z,14.00
2022-11-07T19:44:56.791Z,13.50
2022-11-07T19:47:26.614Z,17.00
2022-11-07T19:49:54.842Z,7.00
2022-11-07T19:52:23.205Z,17.00
2022-11-07T19:54:51.793Z,19.80
2022-11-07T19:57:20.116Z,17.00
2022-11-07T19:59:48.272Z,17.80
2022-11-07T20:02:32.209Z,19.20
2022-11-07T20:05:02.174Z,18.75
2022-11-07T20:07:31.370Z,14.00
2022-11-07T20:10:01.382Z,15.80
2022-11-07T20:12:30.915Z,11.20
2022-11-07T20:14:59.081Z,12.25
2022-11-07T20:17:28.322Z,17.60
2022-11-07T20:19:58.929Z,14.40
2022-11-07T20:22:32.516Z,18.80
2022-11-07T20:25:00.736Z,15.00
2022-11-07T20:27:29.036Z,11.75
2022-11-07T20:29:58.495Z,10.75
2022-11-07T20:32:26.957Z,14.00
2022-11-07T20:34:54.990Z,17.00
2022-11-07T20:37:23.253Z,17.00
2022-11-07T20:39:52.789Z,12.00
2022-11-07T20:42:21.341Z,13.00
2022-11-07T20:44:50.787Z,16.75
2022-11-07T20:47:19.569Z,16.50
2022-11-07T20:49:47.641Z,16.50
2022-11-07T20:52:15.666Z,12.00
2022-11-07T20:54:43.926Z,12.25
2022-11-07T20:57:13.539Z,17.00
2022-11-07T20:59:42.300Z,15.75
2022-11-07T21:02:11.797Z,15.25
2022-11-07T21:04:56.420Z,15.50
2022-11-07T21:07:28.223Z,15.75
2022-11-07T21:09:56.310Z,12.00
2022-11-07T21:12:25.829Z,15.00
2022-11-07T21:14:54.780Z,13.00
2022-11-07T21:17:22.867Z,18.25
2022-11-07T21:19:50.920Z,18.00
2022-11-07T21:22:18.935Z,14.75
2022-11-07T21:24:47.135Z,14.40
2022-11-07T21:27:15.516Z,13.50
2022-11-07T21:29:45.184Z,16.50
2022-11-07T21:32:13.359Z,11.25
2022-11-07T21:34:42.798Z,10.00
2022-11-07T21:37:10.945Z,13.60
2022-11-07T21:39:39.035Z,13.60
2022-11-07T21:42:07.210Z,16.00
2022-11-07T21:44:35.534Z,20.20
2022-11-07T21:47:05.206Z,18.50
2022-11-07T21:49:33.541Z,20.20
2022-11-07T21:52:01.792Z,16.60
2022-11-07T21:54:29.819Z,17.25
2022-11-07T21:56:58.006Z,14.50
2022-11-07T21:59:26.032Z,16.75
2022-11-07T22:01:55.413Z,16.00
2022-11-07T22:04:24.921Z,12.80
2022-11-07T22:06:52.999Z,15.50
2022-11-07T22:09:22.493Z,14.00
2022-11-07T22:11:50.612Z,17.40
2022-11-07T22:14:19.428Z,12.25
2022-11-07T22:16:47.803Z,13.75
2022-11-07T22:19:16.796Z,16.60
2022-11-07T22:21:46.553Z,15.25
2022-11-07T22:24:14.606Z,14.75
2022-11-07T22:26:42.715Z,15.50
2022-11-07T22:29:10.770Z,14.75
2022-11-07T22:31:39.358Z,18.00
2022-11-07T22:34:07.381Z,12.00
2022-11-07T22:36:35.502Z,16.80
2022-11-07T22:39:05.190Z,10.75
2022-11-07T22:41:33.246Z,17.25
2022-11-07T22:44:01.530Z,14.20
2022-11-07T22:46:30.742Z,18.50
2022-11-07T22:48:59.978Z,17.00
2022-11-07T22:51:28.838Z,14.00
2022-11-07T22:53:57.931Z,17.50
2022-11-07T22:56:27.832Z,15.25
2022-11-07T22:58:56.246Z,19.75
2022-11-07T23:01:25.392Z,13.50
2022-11-07T23:03:53.999Z,14.75
2022-11-07T23:06:22.546Z,17.50
2022-11-07T23:08:50.636Z,16.60
2022-11-07T23:14:11.789Z,14.80
2022-11-07T23:16:41.517Z,17.50
2022-11-07T23:19:10.533Z,12.25
2022-11-07T23:21:38.562Z,17.00
2022-11-07T23:24:07.198Z,16.25
2022-11-07T23:26:35.931Z,6.20
2022-11-07T23:29:10.365Z,15.00
2022-11-07T23:31:41.439Z,15.50
2022-11-07T23:34:09.519Z,18.40
2022-11-07T23:36:37.618Z,14.80
2022-11-07T23:39:07.117Z,17.60
2022-11-07T23:41:35.615Z,18.00
2022-11-07T23:44:03.820Z,15.75
2022-11-07T23:46:49.590Z,10.50
2022-11-07T23:49:36.898Z,16.75
2022-11-07T23:52:05.040Z,7.00
2022-11-07T23:54:50.760Z,15.00
2022-11-07T23:57:19.103Z,17.80
